sensor_id;sensor_type;location;lat;lon;timestamp;pressure;altitude;pressure_sealevel;temperature;humidity
43298;BME280;28892;55.640;37.532;2022-09-12T00:01:23;98987.47;;;10.92;62.56
43298;BME280;28892;55.640;37.532;2022-09-12T00:03:55;98991.19;;;10.97;62.26
43298;BME280;28892;55.640;37.532;2022-09-12T00:06:26;98988.91;;;10.94;62.54
43298;BME280;28892;55.640;37.532;2022-09-12T00:08:58;98982.34;;;10.90;62.81
43298;BME280;28892;55.640;37.532;2022-09-12T00:11:24;98981.88;;;10.86;63.07
43298;BME280;28892;55.640;37.532;2022-09-12T00:13:50;98981.44;;;10.83;62.93
43298;BME280;28892;55.640;37.532;2022-09-12T00:16:21;98979.69;;;10.68;63.98
43298;BME280;28892;55.640;37.532;2022-09-12T00:18:48;98972.41;;;10.77;63.82
43298;BME280;28892;55.640;37.532;2022-09-12T00:21:15;98970.47;;;10.86;63.47
43298;BME280;28892;55.640;37.532;2022-09-12T00:23:41;98967.66;;;10.94;62.83
43298;BME280;28892;55.640;37.532;2022-09-12T00:26:07;98959.91;;;10.93;62.57
43298;BME280;28892;55.640;37.532;2022-09-12T00:28:35;98962.88;;;10.83;63.44
43298;BME280;28892;55.640;37.532;2022-09-12T00:31:11;98964.22;;;10.94;64.19
43298;BME280;28892;55.640;37.532;2022-09-12T00:33:37;98958.78;;;11.02;63.42
43298;BME280;28892;55.640;37.532;2022-09-12T00:36:06;98958.69;;;11.17;63.38
43298;BME280;28892;55.640;37.532;2022-09-12T00:38:32;98949.84;;;11.10;63.53
43298;BME280;28892;55.640;37.532;2022-09-12T00:40:58;98946.00;;;11.12;63.16
43298;BME280;28892;55.640;37.532;2022-09-12T00:45:57;98959.00;;;11.36;62.62
43298;BME280;28892;55.640;37.532;2022-09-12T00:48:31;98946.63;;;11.43;62.75
43298;BME280;28892;55.640;37.532;2022-09-12T00:50:58;98948.66;;;11.41;62.79
43298;BME280;28892;55.640;37.532;2022-09-12T00:53:24;98947.66;;;11.49;62.95
43298;BME280;28892;55.640;37.532;2022-09-12T00:55:51;98949.34;;;11.56;62.11
43298;BME280;28892;55.640;37.532;2022-09-12T00:58:27;98951.44;;;11.68;62.46
43298;BME280;28892;55.640;37.532;2022-09-12T01:00:56;98948.00;;;11.67;61.38
43298;BME280;28892;55.640;37.532;2022-09-12T01:03:23;98939.41;;;11.65;61.19
43298;BME280;28892;55.640;37.532;2022-09-12T01:06:01;98950.66;;;11.67;61.12
43298;BME280;28892;55.640;37.532;2022-09-12T01:08:32;98944.28;;;11.62;61.82
43298;BME280;28892;55.640;37.532;2022-09-12T01:10:58;98943.25;;;11.63;60.69
43298;BME280;28892;55.640;37.532;2022-09-12T01:13:24;98942.66;;;11.60;60.82
43298;BME280;28892;55.640;37.532;2022-09-12T01:15:50;98943.63;;;11.59;60.91
43298;BME280;28892;55.640;37.532;2022-09-12T01:29:30;98943.28;;;11.69;61.09
43298;BME280;28892;55.640;37.532;2022-09-12T01:32:12;98935.09;;;11.64;61.19
43298;BME280;28892;55.640;37.532;2022-09-12T01:34:53;98942.94;;;11.79;61.01
43298;BME280;28892;55.640;37.532;2022-09-12T01:37:43;98940.28;;;11.79;60.60
43298;BME280;28892;55.640;37.532;2022-09-12T01:40:29;98935.50;;;11.68;61.23
43298;BME280;28892;55.640;37.532;2022-09-12T01:43:17;98940.31;;;11.51;61.71
43298;BME280;28892;55.640;37.532;2022-09-12T01:45:54;98945.19;;;11.47;62.12
43298;BME280;28892;55.640;37.532;2022-09-12T01:48:29;98936.16;;;11.41;62.31
43298;BME280;28892;55.640;37.532;2022-09-12T01:54:15;98936.38;;;11.40;62.79
43298;BME280;28892;55.640;37.532;2022-09-12T01:56:47;98941.22;;;11.29;62.84
43298;BME280;28892;55.640;37.532;2022-09-12T01:59:20;98940.59;;;11.27;63.08
43298;BME280;28892;55.640;37.532;2022-09-12T02:02:38;98937.06;;;11.20;62.96
43298;BME280;28892;55.640;37.532;2022-09-12T02:07:40;98932.81;;;11.26;62.75
43298;BME280;28892;55.640;37.532;2022-09-12T02:10:19;98935.16;;;11.14;63.39
43298;BME280;28892;55.640;37.532;2022-09-12T02:12:54;98938.06;;;11.19;62.80
43298;BME280;28892;55.640;37.532;2022-09-12T02:15:33;98934.22;;;11.22;63.17
43298;BME280;28892;55.640;37.532;2022-09-12T02:18:04;98935.78;;;11.16;63.34
43298;BME280;28892;55.640;37.532;2022-09-12T02:20:33;98922.91;;;11.13;63.23
43298;BME280;28892;55.640;37.532;2022-09-12T02:23:05;98923.13;;;11.11;63.19
43298;BME280;28892;55.640;37.532;2022-09-12T02:25:37;98927.81;;;11.16;63.32
43298;BME280;28892;55.640;37.532;2022-09-12T02:28:10;98923.69;;;11.07;63.38
43298;BME280;28892;55.640;37.532;2022-09-12T02:30:46;98926.13;;;11.08;63.29
43298;BME280;28892;55.640;37.532;2022-09-12T02:33:26;98922.38;;;10.96;63.35
43298;BME280;28892;55.640;37.532;2022-09-12T02:36:02;98925.47;;;10.99;63.21
43298;BME280;28892;55.640;37.532;2022-09-12T02:38:44;98918.97;;;11.02;63.60
43298;BME280;28892;55.640;37.532;2022-09-12T02:41:13;98923.34;;;10.88;63.96
43298;BME280;28892;55.640;37.532;2022-09-12T02:43:40;98923.28;;;10.81;64.18
43298;BME280;28892;55.640;37.532;2022-09-12T02:46:07;98927.31;;;10.77;64.48
43298;BME280;28892;55.640;37.532;2022-09-12T02:48:38;98929.59;;;10.80;64.73
43298;BME280;28892;55.640;37.532;2022-09-12T02:51:07;98937.34;;;10.82;63.87
43298;BME280;28892;55.640;37.532;2022-09-12T02:53:33;98928.94;;;10.78;64.48
43298;BME280;28892;55.640;37.532;2022-09-12T02:55:59;98927.31;;;10.77;64.57
43298;BME280;28892;55.640;37.532;2022-09-12T02:58:28;98931.69;;;10.85;64.71
43298;BME280;28892;55.640;37.532;2022-09-12T03:01:17;98924.63;;;10.99;64.44
43298;BME280;28892;55.640;37.532;2022-09-12T03:06:43;98930.31;;;11.17;63.74
43298;BME280;28892;55.640;37.532;2022-09-12T03:12:23;98927.72;;;11.02;64.41
43298;BME280;28892;55.640;37.532;2022-09-12T03:15:06;98934.88;;;11.02;63.94
43298;BME280;28892;55.640;37.532;2022-09-12T03:23:41;98927.94;;;11.01;63.90
43298;BME280;28892;55.640;37.532;2022-09-12T03:26:15;98927.63;;;10.89;64.19
43298;BME280;28892;55.640;37.532;2022-09-12T03:28:46;98927.75;;;10.81;64.40
43298;BME280;28892;55.640;37.532;2022-09-12T03:31:17;98930.41;;;10.81;64.04
43298;BME280;28892;55.640;37.532;2022-09-12T03:33:43;98929.16;;;10.76;64.64
43298;BME280;28892;55.640;37.532;2022-09-12T03:36:24;98929.03;;;10.85;64.69
43298;BME280;28892;55.640;37.532;2022-09-12T03:38:50;98929.56;;;10.73;64.88
43298;BME280;28892;55.640;37.532;2022-09-12T03:41:16;98925.50;;;10.78;64.76
43298;BME280;28892;55.640;37.532;2022-09-12T03:43:42;98925.88;;;10.74;64.83
43298;BME280;28892;55.640;37.532;2022-09-12T03:46:08;98920.56;;;10.74;65.12
43298;BME280;28892;55.640;37.532;2022-09-12T03:48:34;98924.59;;;10.70;64.87
43298;BME280;28892;55.640;37.532;2022-09-12T03:51:01;98918.28;;;10.71;65.01
43298;BME280;28892;55.640;37.532;2022-09-12T03:53:27;98916.47;;;10.72;65.14
43298;BME280;28892;55.640;37.532;2022-09-12T03:55:53;98910.16;;;10.73;65.20
43298;BME280;28892;55.640;37.532;2022-09-12T03:58:18;98914.63;;;10.72;64.94
43298;BME280;28892;55.640;37.532;2022-09-12T04:00:44;98905.03;;;10.71;65.11
43298;BME280;28892;55.640;37.532;2022-09-12T04:03:10;98916.28;;;10.73;64.74
43298;BME280;28892;55.640;37.532;2022-09-12T04:05:35;98905.03;;;10.71;65.21
43298;BME280;28892;55.640;37.532;2022-09-12T04:08:01;98899.34;;;10.74;65.40
43298;BME280;28892;55.640;37.532;2022-09-12T04:10:27;98905.50;;;10.82;65.42
43298;BME280;28892;55.640;37.532;2022-09-12T04:12:52;98901.63;;;10.78;65.65
43298;BME280;28892;55.640;37.532;2022-09-12T04:15:18;98905.84;;;10.72;65.45
43298;BME280;28892;55.640;37.532;2022-09-12T04:17:43;98917.72;;;10.76;65.59
43298;BME280;28892;55.640;37.532;2022-09-12T04:20:09;98925.50;;;10.78;65.60
43298;BME280;28892;55.640;37.532;2022-09-12T04:22:35;98919.44;;;10.84;65.25
43298;BME280;28892;55.640;37.532;2022-09-12T04:25:00;98917.78;;;10.83;65.24
43298;BME280;28892;55.640;37.532;2022-09-12T04:27:26;98923.03;;;10.76;65.68
43298;BME280;28892;55.640;37.532;2022-09-12T04:29:52;98922.00;;;10.77;64.82
43298;BME280;28892;55.640;37.532;2022-09-12T04:32:28;98915.31;;;10.81;66.31
43298;BME280;28892;55.640;37.532;2022-09-12T04:34:55;98915.63;;;10.71;66.32
43298;BME280;28892;55.640;37.532;2022-09-12T04:37:21;98914.03;;;10.77;66.04
43298;BME280;28892;55.640;37.532;2022-09-12T04:39:48;98916.28;;;10.73;66.29
43298;BME280;28892;55.640;37.532;2022-09-12T04:42:14;98912.97;;;10.71;66.68
43298;BME280;28892;55.640;37.532;2022-09-12T04:44:40;98914.50;;;10.81;66.07
43298;BME280;28892;55.640;37.532;2022-09-12T04:47:06;98912.63;;;10.74;66.03
43298;BME280;28892;55.640;37.532;2022-09-12T04:49:32;98917.03;;;10.89;65.63
43298;BME280;28892;55.640;37.532;2022-09-12T04:51:58;98915.78;;;10.85;65.87
43298;BME280;28892;55.640;37.532;2022-09-12T04:54:24;98912.59;;;10.96;65.15
43298;BME280;28892;55.640;37.532;2022-09-12T04:56:50;98912.72;;;10.88;65.84
43298;BME280;28892;55.640;37.532;2022-09-12T04:59:18;98915.94;;;10.83;66.30
43298;BME280;28892;55.640;37.532;2022-09-12T05:01:44;98913.47;;;10.82;66.79
43298;BME280;28892;55.640;37.532;2022-09-12T05:04:11;98917.03;;;10.89;66.04
43298;BME280;28892;55.640;37.532;2022-09-12T05:06:38;98914.75;;;10.86;66.63
43298;BME280;28892;55.640;37.532;2022-09-12T05:09:06;98918.25;;;10.93;65.79
43298;BME280;28892;55.640;37.532;2022-09-12T05:11:34;98914.59;;;10.94;66.91
43298;BME280;28892;55.640;37.532;2022-09-12T05:14:01;98912.16;;;10.93;66.22
43298;BME280;28892;55.640;37.532;2022-09-12T05:16:27;98913.59;;;10.95;65.94
43298;BME280;28892;55.640;37.532;2022-09-12T05:18:55;98912.81;;;11.01;66.29
43298;BME280;28892;55.640;37.532;2022-09-12T05:21:22;98915.38;;;10.88;66.21
43298;BME280;28892;55.640;37.532;2022-09-12T05:23:50;98911.59;;;10.97;65.86
43298;BME280;28892;55.640;37.532;2022-09-12T05:26:16;98908.72;;;10.99;66.21
43298;BME280;28892;55.640;37.532;2022-09-12T05:28:43;98916.63;;;10.92;66.54
43298;BME280;28892;55.640;37.532;2022-09-12T05:31:13;98916.50;;;11.00;66.42
43298;BME280;28892;55.640;37.532;2022-09-12T05:33:40;98921.13;;;10.92;66.64
43298;BME280;28892;55.640;37.532;2022-09-12T05:36:10;98906.06;;;10.99;65.93
43298;BME280;28892;55.640;37.532;2022-09-12T05:38:36;98915.66;;;11.00;66.29
43298;BME280;28892;55.640;37.532;2022-09-12T05:41:10;98913.22;;;10.98;66.79
43298;BME280;28892;55.640;37.532;2022-09-12T05:43:38;98903.47;;;11.06;65.96
43298;BME280;28892;55.640;37.532;2022-09-12T05:46:07;98903.28;;;11.07;66.04
43298;BME280;28892;55.640;37.532;2022-09-12T05:48:35;98907.13;;;11.04;65.88
43298;BME280;28892;55.640;37.532;2022-09-12T05:51:07;98906.38;;;11.11;66.03
43298;BME280;28892;55.640;37.532;2022-09-12T05:53:34;98898.22;;;11.12;65.93
43298;BME280;28892;55.640;37.532;2022-09-12T05:56:06;98898.03;;;11.21;66.36
43298;BME280;28892;55.640;37.532;2022-09-12T05:58:33;98902.59;;;11.27;66.40
43298;BME280;28892;55.640;37.532;2022-09-12T06:01:07;98901.22;;;11.38;66.05
43298;BME280;28892;55.640;37.532;2022-09-12T06:03:35;98896.34;;;11.41;65.18
43298;BME280;28892;55.640;37.532;2022-09-12T06:06:03;98890.81;;;11.36;65.84
43298;BME280;28892;55.640;37.532;2022-09-12T06:08:30;98898.19;;;11.41;65.92
43298;BME280;28892;55.640;37.532;2022-09-12T06:11:03;98886.50;;;11.70;65.12
43298;BME280;28892;55.640;37.532;2022-09-12T06:13:35;98891.75;;;11.57;65.38
43298;BME280;28892;55.640;37.532;2022-09-12T06:16:11;98893.16;;;11.59;65.57
43298;BME280;28892;55.640;37.532;2022-09-12T06:18:37;98887.88;;;12.08;64.31
43298;BME280;28892;55.640;37.532;2022-09-12T06:21:04;98884.53;;;11.93;63.72
43298;BME280;28892;55.640;37.532;2022-09-12T06:23:30;98899.19;;;11.75;64.82
43298;BME280;28892;55.640;37.532;2022-09-12T06:25:56;98894.88;;;11.74;64.69
43298;BME280;28892;55.640;37.532;2022-09-12T06:28:22;98897.13;;;11.77;64.85
43298;BME280;28892;55.640;37.532;2022-09-12T06:30:47;98892.84;;;11.76;64.83
43298;BME280;28892;55.640;37.532;2022-09-12T06:33:14;98893.88;;;11.82;64.79
43298;BME280;28892;55.640;37.532;2022-09-12T06:35:40;98896.72;;;11.80;64.75
43298;BME280;28892;55.640;37.532;2022-09-12T06:38:05;98889.44;;;11.96;63.82
43298;BME280;28892;55.640;37.532;2022-09-12T06:40:32;98894.78;;;11.96;63.79
43298;BME280;28892;55.640;37.532;2022-09-12T06:42:58;98892.53;;;11.93;63.75
43298;BME280;28892;55.640;37.532;2022-09-12T06:45:32;98888.09;;;12.13;62.66
43298;BME280;28892;55.640;37.532;2022-09-12T06:47:58;98894.63;;;12.04;62.87
43298;BME280;28892;55.640;37.532;2022-09-12T06:50:24;98892.41;;;12.14;62.45
43298;BME280;28892;55.640;37.532;2022-09-12T06:52:50;98897.72;;;12.14;63.08
43298;BME280;28892;55.640;37.532;2022-09-12T06:55:16;98898.09;;;12.11;62.86
43298;BME280;28892;55.640;37.532;2022-09-12T06:57:42;98903.22;;;12.06;63.25
43298;BME280;28892;55.640;37.532;2022-09-12T07:00:09;98901.59;;;12.05;63.19
43298;BME280;28892;55.640;37.532;2022-09-12T07:02:35;98901.00;;;12.23;62.83
43298;BME280;28892;55.640;37.532;2022-09-12T07:05:00;98914.25;;;12.03;62.90
43298;BME280;28892;55.640;37.532;2022-09-12T07:07:26;98908.13;;;12.09;63.30
43298;BME280;28892;55.640;37.532;2022-09-12T07:09:52;98909.63;;;12.32;62.40
43298;BME280;28892;55.640;37.532;2022-09-12T07:12:18;98921.66;;;12.14;62.88
43298;BME280;28892;55.640;37.532;2022-09-12T07:14:44;98918.16;;;12.14;62.88
43298;BME280;28892;55.640;37.532;2022-09-12T07:17:09;98918.16;;;12.14;63.23
43298;BME280;28892;55.640;37.532;2022-09-12T07:19:36;98920.41;;;12.17;63.29
43298;BME280;28892;55.640;37.532;2022-09-12T07:22:02;98917.34;;;12.13;63.31
43298;BME280;28892;55.640;37.532;2022-09-12T07:24:28;98915.72;;;12.19;63.14
43298;BME280;28892;55.640;37.532;2022-09-12T07:26:54;98914.94;;;12.32;62.74
43298;BME280;28892;55.640;37.532;2022-09-12T07:29:20;98912.88;;;12.21;63.03
43298;BME280;28892;55.640;37.532;2022-09-12T07:31:46;98919.22;;;12.20;63.14
43298;BME280;28892;55.640;37.532;2022-09-12T07:34:11;98913.72;;;12.28;62.71
43298;BME280;28892;55.640;37.532;2022-09-12T07:36:38;98913.72;;;12.35;62.54
43298;BME280;28892;55.640;37.532;2022-09-12T07:39:03;98924.56;;;12.33;62.70
43298;BME280;28892;55.640;37.532;2022-09-12T07:41:31;98935.44;;;12.38;62.99
43298;BME280;28892;55.640;37.532;2022-09-12T07:43:59;98921.72;;;12.41;62.93
43298;BME280;28892;55.640;37.532;2022-09-12T07:46:27;98927.44;;;12.38;62.97
43298;BME280;28892;55.640;37.532;2022-09-12T07:48:55;98927.66;;;12.50;62.71
43298;BME280;28892;55.640;37.532;2022-09-12T07:51:22;98921.56;;;12.63;61.63
43298;BME280;28892;55.640;37.532;2022-09-12T07:53:48;98929.28;;;12.44;62.52
43298;BME280;28892;55.640;37.532;2022-09-12T07:56:15;98935.63;;;12.43;63.11
43298;BME280;28892;55.640;37.532;2022-09-12T07:58:42;98930.13;;;12.58;62.65
43298;BME280;28892;55.640;37.532;2022-09-12T08:01:11;98928.91;;;12.61;62.34
43298;BME280;28892;55.640;37.532;2022-09-12T08:03:43;98935.69;;;12.64;62.03
43298;BME280;28892;55.640;37.532;2022-09-12T08:06:12;98929.75;;;12.75;61.40
43298;BME280;28892;55.640;37.532;2022-09-12T08:08:38;98934.44;;;12.73;61.13
43298;BME280;28892;55.640;37.532;2022-09-12T08:11:10;98931.78;;;12.73;62.04
43298;BME280;28892;55.640;37.532;2022-09-12T08:13:37;98934.88;;;12.77;61.72
43298;BME280;28892;55.640;37.532;2022-09-12T08:16:09;98936.72;;;12.83;61.91
43298;BME280;28892;55.640;37.532;2022-09-12T08:18:37;98934.25;;;12.81;61.16
43298;BME280;28892;55.640;37.532;2022-09-12T08:21:31;98933.44;;;12.81;61.81
43298;BME280;28892;55.640;37.532;2022-09-12T08:24:01;98930.56;;;12.89;60.84
43298;BME280;28892;55.640;37.532;2022-09-12T08:26:29;98933.03;;;12.70;61.01
43298;BME280;28892;55.640;37.532;2022-09-12T08:28:55;98936.50;;;12.71;60.71
43298;BME280;28892;55.640;37.532;2022-09-12T08:31:22;98919.91;;;12.89;60.67
43298;BME280;28892;55.640;37.532;2022-09-12T08:33:49;98924.22;;;12.63;61.16
43298;BME280;28892;55.640;37.532;2022-09-12T08:36:17;98932.19;;;12.56;61.83
43298;BME280;28892;55.640;37.532;2022-09-12T08:38:45;98927.47;;;12.72;61.49
43298;BME280;28892;55.640;37.532;2022-09-12T08:55:33;98919.50;;;13.19;60.30
43298;BME280;28892;55.640;37.532;2022-09-12T08:58:21;98900.66;;;13.21;59.87
43298;BME280;28892;55.640;37.532;2022-09-12T09:11:54;98918.88;;;13.51;59.06
43298;BME280;28892;55.640;37.532;2022-09-12T09:14:40;98912.31;;;13.40;58.46
43298;BME280;28892;55.640;37.532;2022-09-12T09:17:23;98919.88;;;13.63;57.92
43298;BME280;28892;55.640;37.532;2022-09-12T09:20:22;98918.16;;;13.82;56.67
43298;BME280;28892;55.640;37.532;2022-09-12T09:25:55;98906.03;;;13.87;56.24
43298;BME280;28892;55.640;37.532;2022-09-12T09:28:25;98915.06;;;13.86;56.39
43298;BME280;28892;55.640;37.532;2022-09-12T09:30:56;98904.81;;;13.89;54.96
43298;BME280;28892;55.640;37.532;2022-09-12T09:33:25;98914.69;;;13.82;55.16
43298;BME280;28892;55.640;37.532;2022-09-12T09:38:44;98916.50;;;13.88;55.17
43298;BME280;28892;55.640;37.532;2022-09-12T09:43:56;98914.50;;;13.77;55.04
43298;BME280;28892;55.640;37.532;2022-09-12T09:46:23;98910.75;;;13.91;54.57
43298;BME280;28892;55.640;37.532;2022-09-12T09:48:50;98916.69;;;13.87;54.09
43298;BME280;28892;55.640;37.532;2022-09-12T09:51:25;98925.97;;;13.84;54.81
43298;BME280;28892;55.640;37.532;2022-09-12T09:53:54;98933.53;;;13.87;55.50
43298;BME280;28892;55.640;37.532;2022-09-12T09:56:29;98919.91;;;14.09;54.69
43298;BME280;28892;55.640;37.532;2022-09-12T09:59:17;98922.09;;;14.19;53.88
43298;BME280;28892;55.640;37.532;2022-09-12T10:01:52;98928.50;;;14.11;54.73
43298;BME280;28892;55.640;37.532;2022-09-12T10:04:26;98935.06;;;14.08;53.79
43298;BME280;28892;55.640;37.532;2022-09-12T10:06:58;98918.91;;;14.03;53.20
43298;BME280;28892;55.640;37.532;2022-09-12T10:09:26;98917.13;;;13.83;54.55
43298;BME280;28892;55.640;37.532;2022-09-12T10:11:53;98919.75;;;13.97;54.33
43298;BME280;28892;55.640;37.532;2022-09-12T10:14:40;98918.31;;;14.40;53.70
43298;BME280;28892;55.640;37.532;2022-09-12T10:17:22;98923.66;;;14.40;53.23
43298;BME280;28892;55.640;37.532;2022-09-12T10:19:48;98913.41;;;14.30;52.52
43298;BME280;28892;55.640;37.532;2022-09-12T10:22:19;98921.81;;;14.34;52.54
43298;BME280;28892;55.640;37.532;2022-09-12T10:25:10;98906.84;;;14.33;52.51
43298;BME280;28892;55.640;37.532;2022-09-12T10:27:34;98923.56;;;14.15;53.38
43298;BME280;28892;55.640;37.532;2022-09-12T10:30:26;98914.00;;;14.39;53.13
43298;BME280;28892;55.640;37.532;2022-09-12T10:32:57;98921.22;;;14.32;53.03
43298;BME280;28892;55.640;37.532;2022-09-12T10:35:30;98914.94;;;14.51;52.27
43298;BME280;28892;55.640;37.532;2022-09-12T10:38:24;98912.97;;;14.40;52.54
43298;BME280;28892;55.640;37.532;2022-09-12T10:41:04;98912.13;;;14.39;52.87
43298;BME280;28892;55.640;37.532;2022-09-12T10:43:36;98911.63;;;14.24;52.93
43298;BME280;28892;55.640;37.532;2022-09-12T10:48:45;98908.84;;;14.44;53.09
43298;BME280;28892;55.640;37.532;2022-09-12T10:53:56;98911.28;;;14.46;53.30
43298;BME280;28892;55.640;37.532;2022-09-12T11:01:51;98914.81;;;14.72;52.61
43298;BME280;28892;55.640;37.532;2022-09-12T11:04:27;98910.06;;;14.80;52.61
43298;BME280;28892;55.640;37.532;2022-09-12T11:17:55;98899.38;;;16.48;48.88
43298;BME280;28892;55.640;37.532;2022-09-12T11:20:37;98900.56;;;16.65;48.39
43298;BME280;28892;55.640;37.532;2022-09-12T11:25:55;98900.91;;;16.56;48.17
43298;BME280;28892;55.640;37.532;2022-09-12T11:28:32;98889.44;;;16.80;47.48
43298;BME280;28892;55.640;37.532;2022-09-12T11:33:51;98892.81;;;16.99;46.82
43298;BME280;28892;55.640;37.532;2022-09-12T11:39:54;98895.66;;;17.04;46.85
43298;BME280;28892;55.640;37.532;2022-09-12T11:42:02;98895.00;;;16.78;47.03
43298;BME280;28892;55.640;37.532;2022-09-12T11:44:45;98898.84;;;16.58;47.00
43298;BME280;28892;55.640;37.532;2022-09-12T11:47:13;98893.78;;;16.08;47.60
43298;BME280;28892;55.640;37.532;2022-09-12T11:49:52;98900.59;;;16.03;47.84
43298;BME280;28892;55.640;37.532;2022-09-12T11:52:22;98905.00;;;15.60;48.77
43298;BME280;28892;55.640;37.532;2022-09-12T12:00:23;98893.53;;;15.16;49.71
43298;BME280;28892;55.640;37.532;2022-09-12T12:03:14;98885.53;;;15.16;49.63
43298;BME280;28892;55.640;37.532;2022-09-12T12:06:00;98894.34;;;15.16;49.38
43298;BME280;28892;55.640;37.532;2022-09-12T12:08:30;98880.06;;;14.85;49.73
43298;BME280;28892;55.640;37.532;2022-09-12T12:11:01;98882.81;;;14.65;50.40
43298;BME280;28892;55.640;37.532;2022-09-12T12:13:45;98880.72;;;14.99;50.35
43298;BME280;28892;55.640;37.532;2022-09-12T12:16:32;98881.38;;;14.94;50.89
43298;BME280;28892;55.640;37.532;2022-09-12T12:19:08;98876.03;;;14.94;50.12
43298;BME280;28892;55.640;37.532;2022-09-12T12:21:44;98880.59;;;14.94;49.65
43298;BME280;28892;55.640;37.532;2022-09-12T12:24:14;98869.41;;;14.78;49.79
43298;BME280;28892;55.640;37.532;2022-09-12T12:36:57;98872.50;;;14.75;50.04
43298;BME280;28892;55.640;37.532;2022-09-12T12:41:56;98864.16;;;14.90;49.37
43298;BME280;28892;55.640;37.532;2022-09-12T12:47:20;98863.63;;;15.07;49.23
43298;BME280;28892;55.640;37.532;2022-09-12T12:50:03;98863.63;;;15.26;49.16
43298;BME280;28892;55.640;37.532;2022-09-12T12:52:32;98857.69;;;15.23;48.41
43298;BME280;28892;55.640;37.532;2022-09-12T12:55:14;98849.53;;;15.37;47.84
43298;BME280;28892;55.640;37.532;2022-09-12T12:57:49;98852.22;;;15.18;47.95
43298;BME280;28892;55.640;37.532;2022-09-12T13:08:18;98867.13;;;14.82;48.09
43298;BME280;28892;55.640;37.532;2022-09-12T13:10:55;98859.91;;;15.08;47.74
43298;BME280;28892;55.640;37.532;2022-09-12T13:13:38;98867.28;;;14.87;47.82
43298;BME280;28892;55.640;37.532;2022-09-12T13:16:07;98864.31;;;14.70;48.50
43298;BME280;28892;55.640;37.532;2022-09-12T13:18:42;98857.53;;;14.74;49.13
43298;BME280;28892;55.640;37.532;2022-09-12T13:21:16;98856.28;;;14.77;48.73
43298;BME280;28892;55.640;37.532;2022-09-12T13:23:42;98856.69;;;14.74;48.53
43298;BME280;28892;55.640;37.532;2022-09-12T13:26:19;98864.09;;;14.72;48.93
43298;BME280;28892;55.640;37.532;2022-09-12T13:28:46;98853.72;;;14.57;49.35
43298;BME280;28892;55.640;37.532;2022-09-12T13:31:24;98863.22;;;14.52;49.32
43298;BME280;28892;55.640;37.532;2022-09-12T13:33:54;98863.94;;;14.66;49.45
43298;BME280;28892;55.640;37.532;2022-09-12T13:43:56;98857.75;;;14.66;49.28
43298;BME280;28892;55.640;37.532;2022-09-12T13:46:32;98857.00;;;14.91;48.93
43298;BME280;28892;55.640;37.532;2022-09-12T13:49:00;98854.69;;;14.94;48.45
43298;BME280;28892;55.640;37.532;2022-09-12T13:51:30;98849.34;;;14.94;48.15
43298;BME280;28892;55.640;37.532;2022-09-12T13:53:58;98846.53;;;14.89;48.62
43298;BME280;28892;55.640;37.532;2022-09-12T13:56:26;98834.47;;;14.80;48.35
43298;BME280;28892;55.640;37.532;2022-09-12T13:58:58;98852.38;;;14.79;48.90
43298;BME280;28892;55.640;37.532;2022-09-12T14:01:43;98852.03;;;15.13;48.37
43298;BME280;28892;55.640;37.532;2022-09-12T14:04:15;98847.94;;;14.92;48.13
43298;BME280;28892;55.640;37.532;2022-09-12T14:07:08;98851.28;;;14.87;48.32
43298;BME280;28892;55.640;37.532;2022-09-12T14:09:44;98853.25;;;14.66;49.23
43298;BME280;28892;55.640;37.532;2022-09-12T14:12:18;98852.47;;;14.59;49.25
43298;BME280;28892;55.640;37.532;2022-09-12T14:14:50;98857.94;;;14.71;48.78
43298;BME280;28892;55.640;37.532;2022-09-12T14:17:21;98850.19;;;14.63;48.90
43298;BME280;28892;55.640;37.532;2022-09-12T14:19:48;98845.13;;;14.55;49.17
43298;BME280;28892;55.640;37.532;2022-09-12T14:22:14;98847.59;;;14.56;49.33
43298;BME280;28892;55.640;37.532;2022-09-12T14:24:47;98853.66;;;14.70;49.11
43298;BME280;28892;55.640;37.532;2022-09-12T14:27:16;98851.13;;;15.01;48.54
43298;BME280;28892;55.640;37.532;2022-09-12T14:29:43;98854.69;;;14.69;49.08
43298;BME280;28892;55.640;37.532;2022-09-12T14:32:20;98856.97;;;14.65;49.21
43298;BME280;28892;55.640;37.532;2022-09-12T14:35:18;98866.59;;;14.66;49.46
43298;BME280;28892;55.640;37.532;2022-09-12T14:37:48;98855.00;;;14.54;49.46
43298;BME280;28892;55.640;37.532;2022-09-12T14:40:20;98863.25;;;14.46;49.58
43298;BME280;28892;55.640;37.532;2022-09-12T14:42:48;98861.44;;;14.39;49.13
43298;BME280;28892;55.640;37.532;2022-09-12T14:45:28;98863.72;;;14.43;49.35
43298;BME280;28892;55.640;37.532;2022-09-12T14:47:54;98862.38;;;14.27;49.52
43298;BME280;28892;55.640;37.532;2022-09-12T14:50:26;98866.91;;;14.19;49.95
43298;BME280;28892;55.640;37.532;2022-09-12T14:53:21;98859.00;;;14.38;49.58
43298;BME280;28892;55.640;37.532;2022-09-12T14:55:56;98853.94;;;14.30;49.90
43298;BME280;28892;55.640;37.532;2022-09-12T14:58:25;98865.09;;;14.20;49.82
43298;BME280;28892;55.640;37.532;2022-09-12T15:08:44;98862.06;;;14.09;50.30
43298;BME280;28892;55.640;37.532;2022-09-12T15:11:10;98861.88;;;14.04;50.75
43298;BME280;28892;55.640;37.532;2022-09-12T15:13:40;98860.78;;;14.12;50.60
43298;BME280;28892;55.640;37.532;2022-09-12T15:16:09;98863.75;;;14.04;50.83
43298;BME280;28892;55.640;37.532;2022-09-12T15:18:36;98863.16;;;13.95;50.78
43298;BME280;28892;55.640;37.532;2022-09-12T15:21:05;98867.88;;;13.93;50.93
43298;BME280;28892;55.640;37.532;2022-09-12T15:23:50;98868.03;;;14.05;50.98
43298;BME280;28892;55.640;37.532;2022-09-12T15:26:24;98871.34;;;14.00;51.01
43298;BME280;28892;55.640;37.532;2022-09-12T15:28:54;98868.31;;;13.90;50.90
43298;BME280;28892;55.640;37.532;2022-09-12T15:31:30;98879.38;;;13.93;51.25